sensor_id;sensor_type;location;lat;lon;timestamp;pressure;altitude;pressure_sealevel;temperature;humidity
71956;BME280;59829;50.562;6.258;2023-02-22T00:01:36;96208.44;;;23.67;50.21
71956;BME280;59829;50.562;6.258;2023-02-22T00:11:49;96206.63;;;23.61;49.69
71956;BME280;59829;50.562;6.258;2023-02-22T00:21:53;96195.06;;;23.56;49.31
71956;BME280;59829;50.562;6.258;2023-02-22T00:31:53;96193.25;;;23.50;48.92
71956;BME280;59829;50.562;6.258;2023-02-22T00:41:53;96186.22;;;23.50;48.47
71956;BME280;59829;50.562;6.258;2023-02-22T00:51:54;96184.59;;;23.49;48.09
71956;BME280;59829;50.562;6.258;2023-02-22T01:01:54;96171.31;;;23.44;47.86
71956;BME280;59829;50.562;6.258;2023-02-22T01:11:55;96166.63;;;23.39;47.58
71956;BME280;59829;50.562;6.258;2023-02-22T01:21:56;96162.59;;;23.37;47.31
71956;BME280;59829;50.562;6.258;2023-02-22T01:31:56;96149.34;;;23.38;47.24
71956;BME280;59829;50.562;6.258;2023-02-22T01:41:57;96143.88;;;23.33;47.41
71956;BME280;59829;50.562;6.258;2023-02-22T01:51:59;96139.25;;;23.29;47.33
71956;BME280;59829;50.562;6.258;2023-02-22T02:02:01;96136.03;;;23.27;47.28
71956;BME280;59829;50.562;6.258;2023-02-22T02:12:04;96130.16;;;23.25;47.32
71956;BME280;59829;50.562;6.258;2023-02-22T02:22:25;96120.69;;;23.24;47.11
71956;BME280;59829;50.562;6.258;2023-02-22T02:32:38;96125.50;;;23.20;47.12
71956;BME280;59829;50.562;6.258;2023-02-22T02:42:52;96118.69;;;23.19;46.86
71956;BME280;59829;50.562;6.258;2023-02-22T02:52:58;96116.88;;;23.20;46.78
71956;BME280;59829;50.562;6.258;2023-02-22T03:24:30;96088.59;;;23.30;46.23
71956;BME280;59829;50.562;6.258;2023-02-22T03:34:37;96080.31;;;23.26;46.18
71956;BME280;59829;50.562;6.258;2023-02-22T03:44:41;96078.53;;;23.27;46.26
71956;BME280;59829;50.562;6.258;2023-02-22T03:54:43;96071.63;;;23.19;46.06
71956;BME280;59829;50.562;6.258;2023-02-22T04:04:45;96067.00;;;23.14;46.05
71956;BME280;59829;50.562;6.258;2023-02-22T04:14:45;96065.00;;;23.16;46.03
71956;BME280;59829;50.562;6.258;2023-02-22T04:24:46;96066.38;;;23.12;45.84
71956;BME280;59829;50.562;6.258;2023-02-22T04:34:47;96057.13;;;23.10;45.96
71956;BME280;59829;50.562;6.258;2023-02-22T04:44:48;96056.69;;;23.06;46.07
71956;BME280;59829;50.562;6.258;2023-02-22T04:54:48;96052.09;;;23.08;45.50
71956;BME280;59829;50.562;6.258;2023-02-22T05:04:49;96033.03;;;23.14;45.37
71956;BME280;59829;50.562;6.258;2023-02-22T05:14:50;96024.19;;;23.15;45.42
71956;BME280;59829;50.562;6.258;2023-02-22T05:24:50;96025.41;;;23.20;45.43
71956;BME280;59829;50.562;6.258;2023-02-22T05:34:54;96020.16;;;23.20;45.02
71956;BME280;59829;50.562;6.258;2023-02-22T05:44:55;96007.72;;;23.22;45.11
71956;BME280;59829;50.562;6.258;2023-02-22T05:54:55;96000.69;;;23.22;44.68
71956;BME280;59829;50.562;6.258;2023-02-22T06:04:56;95990.03;;;23.24;44.89
71956;BME280;59829;50.562;6.258;2023-02-22T06:14:56;95995.25;;;23.24;44.43
71956;BME280;59829;50.562;6.258;2023-02-22T06:24:56;95990.41;;;23.21;44.33
71956;BME280;59829;50.562;6.258;2023-02-22T06:34:57;95990.41;;;23.21;44.09
71956;BME280;59829;50.562;6.258;2023-02-22T06:44:58;95980.41;;;23.31;43.93
71956;BME280;59829;50.562;6.258;2023-02-22T06:54:58;95972.38;;;23.26;43.92
71956;BME280;59829;50.562;6.258;2023-02-22T07:04:58;95969.13;;;23.24;43.59
71956;BME280;59829;50.562;6.258;2023-02-22T07:14:59;95974.13;;;23.19;43.72
71956;BME280;59829;50.562;6.258;2023-02-22T07:25:00;95962.06;;;23.17;43.94
71956;BME280;59829;50.562;6.258;2023-02-22T07:35:00;95964.28;;;23.21;43.32
71956;BME280;59829;50.562;6.258;2023-02-22T07:45:02;95956.28;;;23.29;43.34
71956;BME280;59829;50.562;6.258;2023-02-22T07:55:02;95959.50;;;23.31;43.77
71956;BME280;59829;50.562;6.258;2023-02-22T08:05:04;95955.88;;;23.32;43.81
71956;BME280;59829;50.562;6.258;2023-02-22T08:15:07;95973.97;;;23.33;43.87
71956;BME280;59829;50.562;6.258;2023-02-22T08:25:08;95971.97;;;23.42;43.79
71956;BME280;59829;50.562;6.258;2023-02-22T08:35:09;95961.94;;;23.45;43.88
71956;BME280;59829;50.562;6.258;2023-02-22T08:45:10;95961.53;;;23.55;43.73
71956;BME280;59829;50.562;6.258;2023-02-22T08:55:12;95966.63;;;23.63;43.80
71956;BME280;59829;50.562;6.258;2023-02-22T09:05:12;95969.25;;;23.63;43.85
71956;BME280;59829;50.562;6.258;2023-02-22T09:15:14;95955.97;;;23.71;43.54
71956;BME280;59829;50.562;6.258;2023-02-22T09:25:15;95951.94;;;23.75;43.69
71956;BME280;59829;50.562;6.258;2023-02-22T09:35:15;95931.63;;;23.91;43.70
71956;BME280;59829;50.562;6.258;2023-02-22T09:45:29;95935.03;;;24.04;43.97
71956;BME280;59829;50.562;6.258;2023-02-22T09:56:03;95937.81;;;24.29;45.88
71956;BME280;59829;50.562;6.258;2023-02-22T10:06:10;95935.41;;;24.48;48.28
71956;BME280;59829;50.562;6.258;2023-02-22T10:26:40;95920.06;;;24.51;48.32
71956;BME280;59829;50.562;6.258;2023-02-22T10:36:47;95928.50;;;24.67;47.52
71956;BME280;59829;50.562;6.258;2023-02-22T10:46:48;95936.69;;;24.83;47.31
71956;BME280;59829;50.562;6.258;2023-02-22T10:56:51;95929.44;;;24.79;40.65
71956;BME280;59829;50.562;6.258;2023-02-22T11:17:05;95925.38;;;25.34;43.09
71956;BME280;59829;50.562;6.258;2023-02-22T11:27:07;95914.47;;;25.37;43.24
71956;BME280;59829;50.562;6.258;2023-02-22T11:37:34;95906.09;;;25.47;42.59
71956;BME280;59829;50.562;6.258;2023-02-22T11:47:59;95905.28;;;25.46;42.53
71956;BME280;59829;50.562;6.258;2023-02-22T11:58:19;95900.56;;;25.62;42.13
71956;BME280;59829;50.562;6.258;2023-02-22T12:19:19;95893.63;;;25.74;41.91
71956;BME280;59829;50.562;6.258;2023-02-22T12:29:33;95891.00;;;25.42;42.33
71956;BME280;59829;50.562;6.258;2023-02-22T12:49:58;95890.13;;;25.80;41.95
71956;BME280;59829;50.562;6.258;2023-02-22T13:00:19;95895.38;;;25.55;42.21
71956;BME280;59829;50.562;6.258;2023-02-22T13:30:40;95896.13;;;24.92;43.45
71956;BME280;59829;50.562;6.258;2023-02-22T14:11:44;95895.50;;;24.46;44.73
71956;BME280;59829;50.562;6.258;2023-02-22T14:32:01;95900.13;;;24.44;45.55
71956;BME280;59829;50.562;6.258;2023-02-22T14:42:20;95905.63;;;24.29;46.24
71956;BME280;59829;50.562;6.258;2023-02-22T14:52:25;95907.22;;;24.23;46.73
71956;BME280;59829;50.562;6.258;2023-02-22T15:02:36;95908.47;;;24.14;47.26
71956;BME280;59829;50.562;6.258;2023-02-22T15:12:37;95911.66;;;24.10;47.58
71956;BME280;59829;50.562;6.258;2023-02-22T15:22:38;95914.13;;;23.98;48.24
71956;BME280;59829;50.562;6.258;2023-02-22T15:32:39;95914.13;;;23.98;48.64
71956;BME280;59829;50.562;6.258;2023-02-22T15:42:44;95914.50;;;23.95;49.26
71956;BME280;59829;50.562;6.258;2023-02-22T15:52:57;95928.22;;;23.97;50.95
71956;BME280;59829;50.562;6.258;2023-02-22T16:02:58;95918.53;;;23.91;52.73
71956;BME280;59829;50.562;6.258;2023-02-22T16:13:26;95922.97;;;23.97;52.85
71956;BME280;59829;50.562;6.258;2023-02-22T16:23:28;95928.59;;;23.94;53.59
71956;BME280;59829;50.562;6.258;2023-02-22T16:33:28;95920.16;;;23.85;55.45
71956;BME280;59829;50.562;6.258;2023-02-22T16:43:33;95930.22;;;23.82;55.77
71956;BME280;59829;50.562;6.258;2023-02-22T16:53:35;95934.63;;;23.88;55.25
71956;BME280;59829;50.562;6.258;2023-02-22T17:03:35;95950.75;;;23.85;54.36
71956;BME280;59829;50.562;6.258;2023-02-22T17:13:36;95952.75;;;23.83;53.92
71956;BME280;59829;50.562;6.258;2023-02-22T17:23:37;95962.03;;;23.79;53.31
71956;BME280;59829;50.562;6.258;2023-02-22T17:33:37;95965.22;;;23.74;52.90
71956;BME280;59829;50.562;6.258;2023-02-22T17:43:38;95970.03;;;23.70;52.30
71956;BME280;59829;50.562;6.258;2023-02-22T17:53:39;95972.47;;;23.72;52.12
71956;BME280;59829;50.562;6.258;2023-02-22T18:03:39;95977.69;;;23.65;52.12
71956;BME280;59829;50.562;6.258;2023-02-22T18:13:40;95979.31;;;23.66;51.61
71956;BME280;59829;50.562;6.258;2023-02-22T18:23:41;95983.31;;;23.62;51.75
71956;BME280;59829;50.562;6.258;2023-02-22T18:33:42;95978.47;;;23.59;51.15
71956;BME280;59829;50.562;6.258;2023-02-22T18:43:44;95980.84;;;23.48;51.39
71956;BME280;59829;50.562;6.258;2023-02-22T18:53:45;95970.78;;;23.44;51.21
71956;BME280;59829;50.562;6.258;2023-02-22T19:03:46;95967.97;;;23.46;50.86
71956;BME280;59829;50.562;6.258;2023-02-22T19:13:48;95963.97;;;23.43;50.98
71956;BME280;59829;50.562;6.258;2023-02-22T19:23:49;95975.03;;;23.52;50.74
71956;BME280;59829;50.562;6.258;2023-02-22T19:33:51;95974.44;;;23.57;50.94
71956;BME280;59829;50.562;6.258;2023-02-22T19:43:52;95970.78;;;23.51;51.26
71956;BME280;59829;50.562;6.258;2023-02-22T19:54:01;95974.84;;;23.60;53.12
71956;BME280;59829;50.562;6.258;2023-02-22T20:04:05;95969.25;;;23.63;53.79
71956;BME280;59829;50.562;6.258;2023-02-22T20:14:06;95971.25;;;23.61;53.87
71956;BME280;59829;50.562;6.258;2023-02-22T20:24:08;95968.25;;;23.64;53.90
71956;BME280;59829;50.562;6.258;2023-02-22T20:34:11;95976.50;;;23.61;54.46
71956;BME280;59829;50.562;6.258;2023-02-22T20:44:16;95978.50;;;23.72;54.20
71956;BME280;59829;50.562;6.258;2023-02-22T20:54:18;95975.69;;;23.81;54.20
71956;BME280;59829;50.562;6.258;2023-02-22T21:04:18;95971.88;;;23.90;53.98
71956;BME280;59829;50.562;6.258;2023-02-22T21:14:21;95976.09;;;24.04;54.33
71956;BME280;59829;50.562;6.258;2023-02-22T21:24:24;95966.81;;;24.08;54.34
71956;BME280;59829;50.562;6.258;2023-02-22T21:34:25;95963.41;;;24.14;53.78
71956;BME280;59829;50.562;6.258;2023-02-22T21:44:26;95969.66;;;24.13;53.93
71956;BME280;59829;50.562;6.258;2023-02-22T21:54:27;95968.25;;;23.64;50.27
71956;BME280;59829;50.562;6.258;2023-02-22T22:04:31;95968.25;;;23.84;50.30
71956;BME280;59829;50.562;6.258;2023-02-22T22:14:34;95957.97;;;23.89;49.67
71956;BME280;59829;50.562;6.258;2023-02-22T22:24:34;95963.00;;;23.91;49.16
71956;BME280;59829;50.562;6.258;2023-02-22T22:34:35;95955.75;;;24.06;49.51
71956;BME280;59829;50.562;6.258;2023-02-22T22:44:36;95951.91;;;24.28;49.66
71956;BME280;59829;50.562;6.258;2023-02-22T22:54:43;95953.13;;;24.39;49.65
71956;BME280;59829;50.562;6.258;2023-02-22T23:04:43;95954.53;;;24.42;49.73
71956;BME280;59829;50.562;6.258;2023-02-22T23:14:44;95954.75;;;24.33;49.77
71956;BME280;59829;50.562;6.258;2023-02-22T23:24:45;95944.69;;;24.30;49.72
71956;BME280;59829;50.562;6.258;2023-02-22T23:34:45;95947.91;;;24.32;49.76
71956;BME280;59829;50.562;6.258;2023-02-22T23:44:48;95955.94;;;24.24;49.83
71956;BME280;59829;50.562;6.258;2023-02-22T23:54:52;95957.56;;;24.19;49.94
